Glenwood, Colorado
Current Conditions -  °F | °C
As of 3:18 PM on Thursday 23 Oct 2014 (Local Time) from K5SM Reporting Station
Clear Clear  
Wind Chill: 54°   Ceiling: Unl
Heat Index: 54°   Visibility: 10mi
Dew Point: 32°   Wind: 0mph
Humidity: 44%   Direction: NA
Pressure: 30.48"   Gusts: NA
Location:  39.4624°N, 107.257°W
Report Text: K5SM 232118Z AUTO 00000KT 10SM CLR 12/00 A3048 RMK AO2
Loading
Personal Weather Stations






























Interactive Weather Map
Tropical Storm Tracking
New forecast layout! Learn more

10-Day Weather Forecast

Advertisements
Track Severe Weather on mobile